Flight Track Log - Related Links

Times and Time Zones

All times are in EDT time to prevent confusion due to time zone crossing. See the UAE757 flight status page for this flight to view local times or setup timezone preferences in your user account.

Time Position Orientation Groundspeed Altitude Reporting Facility
EDT Latitude Longitude Course Direction KTS MPH feet Rate Location/Type
Wed 01:05:27 AM 25.2680 55.3440 299° West 174 200 700  Level FlightAware ADS-B
Wed 01:05:42 AM 25.2720 55.3340 294° West 176 203 1,100 960 Climbing FlightAware ADS-B
Wed 01:06:17 AM 25.2890 55.3030 301° West 211 243 1,500 1,100 Climbing FlightAware ADS-B
Wed 01:06:42 AM 25.2990 55.2760 292° West 244 281 2,200 1,877 Climbing FlightAware ADS-B
Wed 01:09:00 AM 25.4084 55.0431 298° West  Level Estimated
Wed 01:10:00 AM 25.4559 54.9417 297° West  Level Estimated
Wed 01:11:00 AM 25.5033 54.8402 297° West  Level Estimated
Wed 01:12:00 AM 25.5506 54.7387 297° West  Level Estimated
Wed 01:13:00 AM 25.5979 54.6371 297° West  Level Estimated
Wed 01:14:00 AM 25.6450 54.5354 297° West  Level Estimated
Wed 01:15:00 AM 25.6921 54.4336 297° West  Level Estimated
Wed 01:16:00 AM 25.7392 54.3317 297° West  Level Estimated
Wed 01:16:02 AM 25.3360 54.5510 297° West 356 410 19,800  Level FlightAware ADS-B
Wed 01:16:42 AM 25.3510 54.4910 285° West 356 410 19,800  Level FlightAware ADS-B
Wed 01:17:22 AM 25.3650 54.4310 284° West 356 410 19,800  Level FlightAware ADS-B
Wed 01:18:02 AM 25.3800 54.3720 286° West 356 410 19,800  Level FlightAware ADS-B
Wed 01:18:52 AM 25.3980 54.2970 285° West 356 410 19,800  Level FlightAware ADS-B
Wed 01:19:32 AM 25.4120 54.2370 284° West 356 410 19,800 1,343 Level FlightAware ADS-B
Wed 01:22:00 AM 25.5289 53.9867 297° West  Level Estimated
Wed 01:23:00 AM 25.5753 53.8869 297° West  Level Estimated
Wed 01:24:00 AM 25.6217 53.7871 297° West  Level Estimated
Wed 01:25:00 AM 25.6680 53.6871 297° West  Level Estimated
Wed 01:26:00 AM 25.7142 53.5871 297° West  Level Estimated
Wed 01:27:00 AM 25.7604 53.4870 297° West  Level Estimated
Wed 01:27:57 AM 25.7320 53.1110 297° West 412 474 32,000  Level FlightAware ADS-B
Wed 01:28:00 AM 25.8065 53.3868 297° West  Level Estimated
Wed 01:29:12 AM 25.7810 52.9640 290° West 405 466 32,000  Level FlightAware ADS-B
Wed 01:30:02 AM 25.7960 52.8620 279° West 405 466 32,000  Level FlightAware ADS-B
Wed 01:30:47 AM 25.8090 52.7700 279° West 405 466 32,000  Level FlightAware ADS-B
Wed 01:31:22 AM 25.8180 52.7080 279° West 405 466 32,000  Level FlightAware ADS-B
Wed 01:32:07 AM 25.8330 52.6050 279° West 404 465 32,000  Level FlightAware ADS-B
Wed 01:32:47 AM 25.8440 52.5290 279° West 404 465 32,000  Level FlightAware ADS-B
Wed 01:33:32 AM 25.8700 52.4320 287° West 407 468 32,000  Level FlightAware ADS-B
Wed 01:34:17 AM 25.9010 52.3510 293° West 405 466 32,000  Level FlightAware ADS-B
Wed 01:34:57 AM 25.9260 52.2850 293° West 405 466 32,000  Level FlightAware ADS-B
Wed 01:35:37 AM 25.9510 52.2200 293° West 405 466 32,000  Level FlightAware ADS-B
Wed 01:36:17 AM 25.9760 52.1550 293° West 405 466 32,000  Level FlightAware ADS-B
Wed 01:37:07 AM 26.0070 52.0730 293° West 405 466 32,000  Level FlightAware ADS-B
Wed 01:37:47 AM 26.0960 51.9590 311° West 409 471 32,000  Level FlightAware ADS-B
Wed 01:38:22 AM 26.1240 51.9000 298° West 408 470 32,000  Level FlightAware ADS-B
Wed 01:39:12 AM 26.1710 51.8010 298° West 405 466 32,000  Level FlightAware ADS-B
Wed 01:39:52 AM 26.2060 51.7270 298° West 409 471 32,000  Level FlightAware ADS-B
Wed 01:40:37 AM 26.2430 51.6430 296° West 407 468 32,000  Level FlightAware ADS-B
Wed 01:41:17 AM 26.2770 51.5660 296° West 405 466 32,000  Level FlightAware ADS-B
Wed 01:42:02 AM 26.3160 51.4820 297° West 407 468 32,000  Level FlightAware ADS-B
Wed 01:42:42 AM 26.3500 51.4050 296° West 408 470 32,000  Level FlightAware ADS-B
Wed 01:43:22 AM 26.3790 51.3370 295° West 405 466 32,000  Level FlightAware ADS-B
Wed 01:44:02 AM 26.4140 51.2510 294° West 410 472 32,000  Level FlightAware ADS-B
Wed 01:44:47 AM 26.4440 51.1740 294° West 408 470 32,000  Level FlightAware ADS-B
Wed 01:45:27 AM 26.4780 51.0910 295° West 407 468 32,000  Level FlightAware ADS-B
Wed 01:46:27 AM 26.5250 50.9740 294° West 407 468 32,000  Level FlightAware ADS-B
Wed 01:47:02 AM 26.5490 50.9110 293° West 407 468 32,000  Level FlightAware ADS-B
Wed 01:47:47 AM 26.5790 50.8220 291° West 408 470 32,000  Level FlightAware ADS-B
Wed 01:48:27 AM 26.6000 50.7550 289° West 408 470 32,000  Level FlightAware ADS-B
Wed 01:49:17 AM 26.6390 50.6490 292° West 32,000  Level FlightAware ADS-B
Wed 01:51:32 AM 26.7340 50.3670 291° West 414 476 32,000  Level FlightAware ADS-B
Wed 01:52:12 AM 26.7550 50.2940 288° West 414 476 32,000  Level FlightAware ADS-B
Wed 01:52:52 AM 26.7750 50.2250 288° West 414 476 32,000  Level FlightAware ADS-B
Wed 01:53:22 AM 26.7530 50.1370 254° West 411 473 32,000  Level FlightAware ADS-B
Wed 01:54:07 AM 26.7520 50.0510 269° West 411 473 32,000  Level FlightAware ADS-B
Wed 01:54:47 AM 26.7510 49.9780 269° West 411 473 32,000  Level FlightAware ADS-B
Wed 01:55:27 AM 26.7490 49.9060 268° West 411 473 32,000  Level FlightAware ADS-B
Wed 01:56:07 AM 26.7480 49.8340 269° West 411 473 32,000  Level FlightAware ADS-B
Wed 01:56:57 AM 26.7470 49.7430 269° West 411 473 32,000  Level FlightAware ADS-B
Wed 01:57:37 AM 26.7460 49.6710 269° West 411 473 32,000  Level FlightAware ADS-B
Wed 01:58:17 AM 26.7450 49.5980 269° West 411 473 32,000  Level FlightAware ADS-B
Wed 01:58:57 AM 26.7440 49.5260 269° West 411 473 32,000  Level FlightAware ADS-B
Wed 01:59:37 AM 26.7420 49.4530 268° West 411 473 32,000  Level FlightAware ADS-B
Wed 02:00:27 AM 26.7410 49.3630 269° West 411 473 32,000  Level FlightAware ADS-B
Wed 02:01:07 AM 26.7400 49.2910 269° West 411 473 32,000  Level FlightAware ADS-B
Wed 02:01:47 AM 26.7390 49.2180 269° West 411 473 32,000  Level FlightAware ADS-B
Wed 02:02:27 AM 26.7380 49.1460 269° West 411 473 32,000  Level FlightAware ADS-B
Wed 02:03:12 AM 26.7120 48.8890 264° West 32,000  Level FlightAware ADS-B
Wed 02:03:57 AM 26.7080 48.7920 267° West 410 472 32,000  Level FlightAware ADS-B
Wed 02:04:37 AM 26.7050 48.7010 268° West 411 473 32,000  Level FlightAware ADS-B
Wed 02:05:17 AM 26.7010 48.6160 267° West 412 474 32,000  Level FlightAware ADS-B
Wed 02:06:02 AM 26.6980 48.5200 268° West 413 475 32,000  Level FlightAware ADS-B
Wed 02:06:42 AM 26.6940 48.4380 267° West 413 475 32,000  Level FlightAware ADS-B
Wed 02:07:27 AM 26.6900 48.3390 267° West 414 476 32,000  Level FlightAware ADS-B
Wed 02:08:07 AM 26.6870 48.2530 268° West 413 475 32,000  Level FlightAware ADS-B
Wed 02:08:47 AM 26.6830 48.1680 267° West 413 475 32,000  Level FlightAware ADS-B
Wed 02:09:32 AM 26.6790 48.0720 267° West 413 475 32,000  Level FlightAware ADS-B
Wed 02:10:07 AM 26.6760 47.9970 267° West 414 476 32,000  Level FlightAware ADS-B
Wed 02:11:22 AM 26.6920 47.8410 277° West 414 476 32,000  Level FlightAware ADS-B
Wed 02:12:02 AM 26.7020 47.7690 279° West 414 476 32,000  Level FlightAware ADS-B
Wed 02:12:42 AM 26.7120 47.6970 279° West 414 476 32,000  Level FlightAware ADS-B
Wed 02:13:22 AM 26.7230 47.6250 280° West 414 476 32,000  Level FlightAware ADS-B
Wed 02:14:12 AM 26.7350 47.5350 279° West 414 476 32,000  Level FlightAware ADS-B
Wed 02:14:52 AM 26.7640 47.3930 283° West 413 475 32,000  Level FlightAware ADS-B
Wed 02:15:37 AM 26.7790 47.3000 280° West 413 475 32,000  Level FlightAware ADS-B
Wed 02:16:17 AM 26.7920 47.2150 280° West 414 476 32,000  Level FlightAware ADS-B
Wed 02:16:57 AM 26.8050 47.1300 280° West 415 478 32,000  Level FlightAware ADS-B
Wed 02:17:42 AM 26.8200 47.0340 280° West 415 478 32,000  Level FlightAware ADS-B
Wed 02:18:22 AM 26.8330 46.9500 280° West 414 476 32,000  Level FlightAware ADS-B
Wed 02:19:02 AM 26.8460 46.8650 280° West 415 478 32,000  Level FlightAware ADS-B
Wed 02:19:47 AM 26.8600 46.7690 279° West 413 475 32,000  Level FlightAware ADS-B
Wed 02:20:27 AM 26.8730 46.6870 280° West 414 476 32,000  Level FlightAware ADS-B
Wed 02:21:12 AM 26.8870 46.5900 279° West 412 474 32,000  Level FlightAware ADS-B
Wed 02:21:52 AM 26.9000 46.5060 280° West 412 474 32,000  Level FlightAware ADS-B
Wed 02:22:32 AM 26.9120 46.4210 279° West 413 475 32,000  Level FlightAware ADS-B
Wed 02:23:17 AM 26.9260 46.3270 280° West 415 478 32,000  Level FlightAware ADS-B
Wed 02:23:57 AM 26.9390 46.2420 280° West 414 476 32,000  Level FlightAware ADS-B
Wed 02:24:37 AM 26.9510 46.1570 279° West 414 476 32,000  Level FlightAware ADS-B
Wed 02:25:22 AM 26.9650 46.0620 279° West 416 479 32,000  Level FlightAware ADS-B
Wed 02:26:02 AM 26.9780 45.9770 280° West 416 479 32,000  Level FlightAware ADS-B
Wed 02:26:47 AM 26.9910 45.8820 279° West 415 478 32,000  Level FlightAware ADS-B
Wed 02:27:27 AM 27.0040 45.7960 280° West 414 476 32,000  Level FlightAware ADS-B
Wed 02:28:12 AM 27.0170 45.7010 279° West 412 474 32,000  Level FlightAware ADS-B
Wed 02:28:52 AM 27.0290 45.6180 279° West 411 473 32,000  Level FlightAware ADS-B
Wed 02:29:47 AM 27.0450 45.5090 279° West 412 474 32,000  Level FlightAware ADS-B
Wed 02:30:27 AM 27.0580 45.4190 279° West 410 472 32,000  Level FlightAware ADS-B
Wed 02:31:12 AM 27.0680 45.3220 277° West 411 473 32,000  Level FlightAware ADS-B
Wed 02:32:07 AM 27.0790 45.2120 276° West 411 473 32,000  Level FlightAware ADS-B
Wed 02:32:47 AM 27.0860 45.1400 276° West 411 473 32,000  Level FlightAware ADS-B
Wed 02:33:27 AM 27.0930 45.0680 276° West 411 473 32,000  Level FlightAware ADS-B
Wed 02:34:07 AM 27.1000 44.9960 276° West 411 473 32,000  Level FlightAware ADS-B
Wed 02:34:57 AM 27.1080 44.9050 276° West 411 473 32,000  Level FlightAware ADS-B
Wed 02:35:37 AM 27.1150 44.8330 276° West 411 473 32,000  Level FlightAware ADS-B
Wed 02:36:17 AM 27.1220 44.7610 276° West 411 473 32,000  Level FlightAware ADS-B
Wed 02:36:57 AM 27.1280 44.6890 275° West 411 473 32,000  Level FlightAware ADS-B
Wed 02:37:37 AM 27.1350 44.6160 276° West 411 473 32,000  Level FlightAware ADS-B
Wed 02:38:27 AM 27.1430 44.5260 276° West 411 473 32,000  Level FlightAware ADS-B
Wed 02:39:07 AM 27.1500 44.4540 276° West 411 473 32,000  Level FlightAware ADS-B
Wed 02:39:47 AM 27.1570 44.3820 276° West 411 473 32,000  Level FlightAware ADS-B
Wed 02:40:27 AM 27.1640 44.3090 276° West 411 473 32,000  Level FlightAware ADS-B
Wed 02:41:07 AM 27.1700 44.2370 275° West 411 473 32,000  Level FlightAware ADS-B
Wed 02:43:00 AM 27.2531 44.0439 296° West  Level Estimated
Wed 02:44:00 AM 27.2972 43.9413 296° West  Level Estimated
Wed 02:45:00 AM 27.3411 43.8386 296° West  Level Estimated
Wed 02:46:00 AM 27.3850 43.7358 296° West  Level Estimated
Wed 02:47:00 AM 27.4288 43.6329 296° West  Level Estimated
Wed 02:48:00 AM 27.4726 43.5299 296° West  Level Estimated
Wed 02:49:00 AM 27.5162 43.4269 296° West  Level Estimated
Wed 02:50:00 AM 27.5598 43.3237 296° West  Level Estimated
Wed 02:51:00 AM 27.6033 43.2205 295° West  Level Estimated
Wed 02:52:00 AM 27.6467 43.1172 295° West  Level Estimated
Wed 02:53:00 AM 27.6901 43.0139 295° West  Level Estimated
Wed 02:54:00 AM 27.7334 42.9104 295° West  Level Estimated
Wed 02:55:00 AM 27.7766 42.8069 295° West  Level Estimated
Wed 02:56:00 AM 27.8197 42.7032 295° West  Level Estimated
Wed 02:57:00 AM 27.8627 42.5995 295° West  Level Estimated
Wed 02:58:00 AM 27.9057 42.4957 295° West  Level Estimated
Wed 02:59:00 AM 27.9486 42.3919 295° West  Level Estimated
Wed 03:00:00 AM 27.9914 42.2879 295° West  Level Estimated
Wed 03:01:00 AM 28.0341 42.1839 295° West  Level Estimated
Wed 03:02:00 AM 28.0768 42.0798 295° West  Level Estimated
Wed 03:03:00 AM 28.1194 41.9756 295° West  Level Estimated
Wed 03:04:00 AM 28.1619 41.8713 295° West  Level Estimated
Wed 03:05:00 AM 28.2043 41.7669 295° West  Level Estimated
Wed 03:06:00 AM 28.2467 41.6625 295° West  Level Estimated
Wed 03:07:00 AM 28.2889 41.5579 295° West  Level Estimated
Wed 03:08:00 AM 28.3311 41.4533 295° West  Level Estimated
Wed 03:09:00 AM 28.3732 41.3486 295° West  Level Estimated
Wed 03:10:00 AM 28.4152 41.2439 295° West  Level Estimated
Wed 03:11:00 AM 28.4571 41.1390 294° West  Level Estimated
Wed 03:12:00 AM 28.4990 41.0340 294° West  Level Estimated
Wed 03:13:00 AM 28.5418 40.9264 294° West  Level Estimated
Wed 03:14:00 AM 28.5846 40.8186 294° West  Level Estimated
Wed 03:15:00 AM 28.6272 40.7108 294° West  Level Estimated
Wed 03:16:00 AM 28.6698 40.6029 294° West  Level Estimated
Wed 03:17:00 AM 28.7123 40.4949 294° West  Level Estimated
Wed 03:18:00 AM 28.7547 40.3868 294° West  Level Estimated
Wed 03:19:00 AM 28.7970 40.2786 294° West  Level Estimated
Wed 03:20:00 AM 28.8392 40.1703 294° West  Level Estimated
Wed 03:21:00 AM 28.8814 40.0620 294° West  Level Estimated
Wed 03:22:00 AM 28.9234 39.9535 294° West  Level Estimated
Wed 03:23:00 AM 28.9654 39.8450 294° West  Level Estimated
Wed 03:24:00 AM 29.0073 39.7363 294° West  Level Estimated
Wed 03:25:00 AM 29.0490 39.6276 294° West  Level Estimated
Wed 03:26:00 AM 29.0907 39.5188 294° West  Level Estimated
Wed 03:27:00 AM 29.1324 39.4099 294° West  Level Estimated
Wed 03:28:00 AM 29.1739 39.3009 294° West  Level Estimated
Wed 03:29:00 AM 29.2153 39.1919 294° West  Level Estimated
Wed 03:30:00 AM 29.2567 39.0827 293° West  Level Estimated
Wed 03:31:00 AM 29.2980 38.9735 293° West  Level Estimated
Wed 03:32:00 AM 29.3391 38.8642 293° West  Level Estimated
Wed 03:33:00 AM 29.3802 38.7547 293° West  Level Estimated
Wed 03:34:00 AM 29.4212 38.6452 293° West  Level Estimated
Wed 03:34:52 AM 29.0980 37.4620 293° West 408 470 32,000  Level FlightAware ADS-B
Wed 03:35:00 AM 29.4621 38.5356 293° West  Level Estimated
Wed 03:35:37 AM 29.0960 37.3650 269° West 408 470 32,000  Level FlightAware ADS-B
Wed 03:36:12 AM 29.0950 37.2890 269° West 407 468 32,000  Level FlightAware ADS-B
Wed 03:37:12 AM 29.0930 37.1640 269° West 407 468 32,000  Level FlightAware ADS-B
Wed 03:37:52 AM 29.0900 37.0910 267° West 407 468 32,000  Level FlightAware ADS-B
Wed 03:38:32 AM 29.0880 37.0180 268° West 407 468 32,000  Level FlightAware ADS-B
Wed 03:39:22 AM 29.0850 36.9260 268° West 407 468 32,000  Level FlightAware ADS-B
Wed 03:40:02 AM 29.0830 36.8530 268° West 407 468 32,000  Level FlightAware ADS-B
Wed 03:40:42 AM 29.0810 36.7800 268° West 407 468 32,000  Level FlightAware ADS-B
Wed 03:41:22 AM 29.0790 36.7070 268° West 407 468 32,000  Level FlightAware ADS-B
Wed 03:42:02 AM 29.0760 36.6330 267° West 407 468 32,000  Level FlightAware ADS-B
Wed 03:42:52 AM 29.0740 36.5420 269° West 407 468 32,000  Level FlightAware ADS-B
Wed 03:43:32 AM 29.0710 36.4690 267° West 407 468 32,000  Level FlightAware ADS-B
Wed 03:44:12 AM 29.0690 36.3960 268° West 407 468 32,000  Level FlightAware ADS-B
Wed 03:44:52 AM 29.0670 36.3220 268° West 407 468 32,000  Level FlightAware ADS-B
Wed 03:45:32 AM 29.0650 36.2490 268° West 407 468 32,000  Level FlightAware ADS-B
Wed 03:46:22 AM 29.0620 36.1580 268° West 407 468 32,000 81 Level FlightAware ADS-B
Wed 03:48:00 AM 29.1312 35.9808 294° West  Level Estimated
Wed 03:49:00 AM 29.1735 35.8722 294° West  Level Estimated
Wed 03:50:00 AM 29.2157 35.7635 294° West  Level Estimated
Wed 03:51:00 AM 29.2578 35.6547 294° West  Level Estimated
Wed 03:52:00 AM 29.2998 35.5459 294° West  Level Estimated
Wed 03:53:00 AM 29.3417 35.4369 294° West  Level Estimated
Wed 03:54:00 AM 29.3836 35.3279 294° West  Level Estimated
Wed 03:55:00 AM 29.4253 35.2187 294° West  Level Estimated
Wed 03:56:00 AM 29.4669 35.1095 294° West  Level Estimated
Wed 03:57:00 AM 29.5085 35.0002 294° West  Level Estimated
Wed 03:58:00 AM 29.5500 34.8908 294° West  Level Estimated
Wed 03:59:00 AM 29.5914 34.7813 294° West  Level Estimated
Wed 04:00:00 AM 29.6327 34.6717 293° West  Level Estimated
Wed 04:01:00 AM 29.6739 34.5620 293° West  Level Estimated
Wed 04:02:00 AM 29.7150 34.4522 293° West  Level Estimated
Wed 04:03:00 AM 29.7561 34.3424 293° West  Level Estimated
Wed 04:04:00 AM 29.7970 34.2324 293° West  Level Estimated
Wed 04:05:00 AM 29.8378 34.1224 293° West  Level Estimated
Wed 04:06:00 AM 29.8786 34.0122 293° West  Level Estimated
Wed 04:07:00 AM 29.9192 33.9020 293° West  Level Estimated
Wed 04:08:00 AM 29.9598 33.7917 293° West  Level Estimated
Wed 04:09:00 AM 30.0003 33.6813 293° West  Level Estimated
Wed 04:10:00 AM 30.0407 33.5708 293° West  Level Estimated
Wed 04:11:00 AM 30.0810 33.4602 293° West  Level Estimated
Wed 04:12:00 AM 30.1212 33.3496 293° West  Level Estimated
Wed 04:13:00 AM 30.1613 33.2388 293° West  Level Estimated
Wed 04:14:00 AM 30.2013 33.1280 293° West  Level Estimated
Wed 04:15:00 AM 30.2412 33.0170 293° West  Level Estimated
Wed 04:16:00 AM 30.2810 32.9060 293° West  Level Estimated
Wed 04:17:00 AM 30.3208 32.7949 293° West  Level Estimated
Wed 04:18:00 AM 30.3604 32.6837 292° West  Level Estimated
Wed 04:19:00 AM 30.4000 32.5724 292° West  Level Estimated
Wed 04:20:00 AM 30.4394 32.4610 292° West  Level Estimated
Wed 04:21:00 AM 30.4788 32.3495 292° West  Level Estimated
Wed 04:22:00 AM 30.5180 32.2379 292° West  Level Estimated
Wed 04:23:00 AM 30.5572 32.1263 292° West  Level Estimated
Wed 04:24:00 AM 30.5963 32.0145 292° West  Level Estimated
Wed 04:25:00 AM 30.6352 31.9027 292° West  Level Estimated
Wed 04:26:00 AM 30.6741 31.7907 292° West  Level Estimated
Wed 04:27:00 AM 30.7129 31.6787 292° West  Level Estimated
Wed 04:28:00 AM 30.7516 31.5666 292° West  Level Estimated
Wed 04:29:00 AM 30.7902 31.4544 292° West  Level Estimated
Wed 04:30:00 AM 30.8287 31.3421 292° West  Level Estimated
Wed 04:31:00 AM 30.8671 31.2297 292° West  Level Estimated
Wed 04:32:00 AM 30.9054 31.1173 292° West  Level Estimated
Wed 04:33:00 AM 30.9436 31.0047 292° West  Level Estimated
Wed 04:34:00 AM 30.9817 30.8921 292° West  Level Estimated
Wed 04:35:00 AM 31.0197 30.7793 291° West  Level Estimated
Wed 04:36:00 AM 31.0576 30.6665 291° West  Level Estimated
Wed 04:37:00 AM 31.0954 30.5536 291° West  Level Estimated
Wed 04:38:00 AM 31.1331 30.4406 291° West  Level Estimated
Wed 04:39:00 AM 31.1707 30.3275 291° West  Level Estimated
Wed 04:40:00 AM 31.2082 30.2143 291° West  Level Estimated
Wed 04:41:00 AM 31.2457 30.1010 291° West  Level Estimated
Wed 04:42:00 AM 31.2830 29.9877 291° West  Level Estimated
Wed 04:43:00 AM 31.3202 29.8742 291° West  Level Estimated
Wed 04:44:00 AM 31.3573 29.7607 291° West  Level Estimated
Wed 04:45:00 AM 31.3943 29.6470 291° West  Level Estimated
Wed 04:46:00 AM 31.4313 29.5333 291° West  Level Estimated
Wed 04:47:00 AM 31.4681 29.4195 291° West  Level Estimated
Wed 04:48:00 AM 31.5048 29.3056 291° West  Level Estimated
Wed 04:49:00 AM 31.5414 29.1916 291° West  Level Estimated
Wed 04:50:00 AM 31.5779 29.0775 291° West  Level Estimated
Wed 04:51:00 AM 31.6143 28.9634 291° West  Level Estimated
Wed 04:52:00 AM 31.6506 28.8491 290° West  Level Estimated
Wed 04:53:00 AM 31.6868 28.7348 290° West  Level Estimated
Wed 04:54:00 AM 31.7230 28.6203 290° West  Level Estimated
Wed 04:55:00 AM 31.7590 28.5058 290° West  Level Estimated
Wed 04:56:00 AM 31.7949 28.3912 290° West  Level Estimated
Wed 04:57:00 AM 31.8307 28.2765 290° West  Level Estimated
Wed 04:58:00 AM 31.8664 28.1617 290° West  Level Estimated
Wed 04:59:00 AM 31.9020 28.0468 290° West  Level Estimated
Wed 05:00:00 AM 31.9374 27.9318 290° West  Level Estimated
Wed 05:01:00 AM 31.9728 27.8168 290° West  Level Estimated
Wed 05:02:00 AM 32.0081 27.7016 290° West  Level Estimated
Wed 05:03:00 AM 32.0433 27.5864 290° West  Level Estimated
Wed 05:04:00 AM 32.0784 27.4711 290° West  Level Estimated
Wed 05:05:00 AM 32.1133 27.3557 290° West  Level Estimated
Wed 05:06:00 AM 32.1482 27.2402 290° West  Level Estimated
Wed 05:07:00 AM 32.1829 27.1246 290° West  Level Estimated
Wed 05:08:00 AM 32.2176 27.0089 290° West  Level Estimated
Wed 05:09:00 AM 32.2522 26.8931 289° West  Level Estimated
Wed 05:10:00 AM 32.2866 26.7773 289° West  Level Estimated
Wed 05:11:00 AM 32.3209 26.6613 289° West  Level Estimated
Wed 05:12:00 AM 32.3552 26.5453 289° West  Level Estimated
Wed 05:13:00 AM 32.3893 26.4292 289° West  Level Estimated
Wed 05:14:00 AM 32.4233 26.3130 289° West  Level Estimated
Wed 05:15:00 AM 32.4572 26.1967 289° West  Level Estimated
Wed 05:16:00 AM 32.4910 26.0803 289° West  Level Estimated
Wed 05:17:00 AM 32.5247 25.9638 289° West  Level Estimated
Wed 05:18:00 AM 32.5583 25.8473 289° West  Level Estimated
Wed 05:19:00 AM 32.5918 25.7306 289° West  Level Estimated
Wed 05:20:00 AM 32.6251 25.6139 289° West  Level Estimated
Wed 05:21:00 AM 32.6584 25.4971 289° West  Level Estimated
Wed 05:22:00 AM 32.6916 25.3802 289° West  Level Estimated
Wed 05:23:00 AM 32.7246 25.2632 289° West  Level Estimated
Wed 05:23:57 AM 33.9560 25.2300 289° West 412 474 40,000  Level FlightAware ADS-B
Wed 05:24:00 AM 32.7576 25.1461 289° West  Level Estimated
Wed 05:24:32 AM 33.9910 25.1630 302° West 405 466 40,000  Level FlightAware ADS-B
Wed 05:25:22 AM 34.0270 25.0600 293° West 398 458 40,000  Level FlightAware ADS-B
Wed 05:26:02 AM 34.0520 24.9760 290° West 395 455 40,000  Level FlightAware ADS-B
Wed 05:26:42 AM 34.0750 24.9020 291° West 395 455 40,000  Level FlightAware ADS-B
Wed 05:27:27 AM 34.1050 24.8000 290° West 397 457 40,000  Level FlightAware ADS-B
Wed 05:28:07 AM 34.1290 24.7210 290° West 397 457 40,000  Level FlightAware ADS-B
Wed 05:28:52 AM 34.1570 24.6240 289° West 396 456 40,000  Level FlightAware ADS-B
Wed 05:29:32 AM 34.1820 24.5410 290° West 396 456 40,000  Level FlightAware ADS-B
Wed 05:30:12 AM 34.2070 24.4560 290° West 397 457 40,000  Level FlightAware ADS-B
Wed 05:30:57 AM 34.2350 24.3610 290° West 397 457 40,000  Level FlightAware ADS-B
Wed 05:31:37 AM 34.2600 24.2770 290° West 397 457 40,000  Level FlightAware ADS-B
Wed 05:32:22 AM 34.2870 24.1820 289° West 396 456 40,000  Level FlightAware ADS-B
Wed 05:33:02 AM 34.3120 24.1000 290° West 394 453 40,000  Level FlightAware ADS-B
Wed 05:33:42 AM 34.3360 24.0150 289° West 394 453 40,000  Level FlightAware ADS-B
Wed 05:34:22 AM 34.3550 23.9470 289° West 394 453 40,000  Level FlightAware ADS-B
Wed 05:35:02 AM 34.3760 23.8760 290° West 394 453 40,000 -65 Level FlightAware ADS-B
Wed 05:37:00 AM 34.4245 23.6356 284° West  Level Estimated
Wed 05:38:00 AM 34.4490 23.5132 284° West  Level Estimated
Wed 05:39:00 AM 34.4733 23.3908 284° West  Level Estimated
Wed 05:40:00 AM 34.4976 23.2683 284° West  Level Estimated
Wed 05:41:00 AM 34.5217 23.1457 283° West  Level Estimated
Wed 05:42:00 AM 34.5457 23.0231 283° West  Level Estimated
Wed 05:43:00 AM 34.5696 22.9001 283° West  Level Estimated
Wed 05:44:00 AM 34.5934 22.7770 283° West  Level Estimated
Wed 05:45:00 AM 34.6170 22.6539 283° West  Level Estimated
Wed 05:46:00 AM 34.6406 22.5307 283° West  Level Estimated
Wed 05:47:00 AM 34.6640 22.4074 283° West  Level Estimated
Wed 05:48:00 AM 34.6873 22.2841 283° West  Level Estimated
Wed 05:49:00 AM 34.7105 22.1607 283° West  Level Estimated
Wed 05:50:00 AM 34.7335 22.0372 283° West  Level Estimated
Wed 05:51:00 AM 34.7565 21.9137 283° West  Level Estimated
Wed 05:52:00 AM 34.7793 21.7900 283° West  Level Estimated
Wed 05:53:00 AM 34.8019 21.6663 283° West  Level Estimated
Wed 05:54:00 AM 34.8245 21.5426 283° West  Level Estimated
Wed 05:55:00 AM 34.8469 21.4188 282° West  Level Estimated
Wed 05:56:00 AM 34.8692 21.2949 282° West  Level Estimated
Wed 05:57:00 AM 34.8914 21.1709 282° West  Level Estimated
Wed 05:58:00 AM 34.9134 21.0469 282° West  Level Estimated
Wed 05:59:00 AM 34.9353 20.9228 282° West  Level Estimated
Wed 06:00:00 AM 34.9571 20.7987 282° West  Level Estimated
Wed 06:01:00 AM 34.9788 20.6745 282° West  Level Estimated
Wed 06:02:00 AM 35.0004 20.5502 282° West  Level Estimated
Wed 06:03:00 AM 35.0218 20.4258 282° West  Level Estimated
Wed 06:04:00 AM 35.0431 20.3014 282° West  Level Estimated
Wed 06:05:00 AM 35.0642 20.1769 282° West  Level Estimated
Wed 06:05:07 AM 35.2380 20.0830 282° West 400 460 38,000  Level FlightAware ADS-B
Wed 06:05:52 AM 35.2540 19.9950 283° West 400 460 38,000  Level FlightAware ADS-B
Wed 06:06:00 AM 35.0853 20.0524 282° West  Level Estimated
Wed 06:06:37 AM 35.2780 19.8800 284° West 402 463 38,000  Level FlightAware ADS-B
Wed 06:07:17 AM 35.2960 19.7930 284° West 399 459 38,000  Level FlightAware ADS-B
Wed 06:07:52 AM 35.3110 19.7140 283° West 400 460 38,000  Level FlightAware ADS-B
Wed 06:08:47 AM 35.3300 19.6070 282° West 400 460 38,000  Level FlightAware ADS-B
Wed 06:09:27 AM 35.3430 19.5310 282° West 400 460 38,000  Level FlightAware ADS-B
Wed 06:10:07 AM 35.3560 19.4560 282° West 400 460 38,000  Level FlightAware ADS-B
Wed 06:10:47 AM 35.3690 19.3800 282° West 400 460 38,000  Level FlightAware ADS-B
Wed 06:11:27 AM 35.3820 19.3050 282° West 400 460 38,000  Level FlightAware ADS-B
Wed 06:12:17 AM 35.3980 19.2110 282° West 400 460 38,000  Level FlightAware ADS-B
Wed 06:12:57 AM 35.4410 19.0420 287° West 38,000  Level FlightAware ADS-B
Wed 06:13:37 AM 35.4550 18.9670 283° West 403 464 38,000  Level FlightAware ADS-B
Wed 06:14:17 AM 35.4690 18.8910 283° West 403 464 38,000  Level FlightAware ADS-B
Wed 06:14:57 AM 35.4910 18.7780 283° West 406 467 38,000  Level FlightAware ADS-B
Wed 06:15:42 AM 35.5110 18.6700 283° West 407 468 38,000  Level FlightAware ADS-B
Wed 06:16:27 AM 35.5300 18.5710 283° West 406 467 38,000  Level FlightAware ADS-B
Wed 06:17:07 AM 35.5470 18.4790 283° West 407 468 38,000  Level FlightAware ADS-B
Wed 06:17:52 AM 35.5650 18.3790 283° West 409 471 38,000  Level FlightAware ADS-B
Wed 06:18:27 AM 35.5800 18.2990 283° West 410 472 38,000  Level FlightAware ADS-B
Wed 06:19:17 AM 35.6000 18.1920 283° West 410 472 38,000  Level FlightAware ADS-B
Wed 06:19:57 AM 35.6180 18.0940 283° West 410 472 38,000  Level FlightAware ADS-B
Wed 06:20:37 AM 35.6330 18.0080 282° West 412 474 38,000  Level FlightAware ADS-B
Wed 06:21:22 AM 35.6530 17.8990 283° West 414 476 38,000  Level FlightAware ADS-B
Wed 06:22:02 AM 35.6690 17.8090 282° West 416 479 38,000  Level FlightAware ADS-B
Wed 06:22:42 AM 35.6840 17.7240 282° West 415 478 38,000  Level FlightAware ADS-B
Wed 06:23:27 AM 35.7040 17.6110 282° West 415 478 38,000  Level FlightAware ADS-B
Wed 06:24:07 AM 35.7200 17.5210 282° West 414 476 38,000  Level FlightAware ADS-B
Wed 06:24:52 AM 35.7390 17.4160 283° West 417 480 38,000  Level FlightAware ADS-B
Wed 06:25:32 AM 35.7530 17.3330 282° West 418 481 38,000  Level FlightAware ADS-B
Wed 06:26:17 AM 35.7730 17.2180 282° West 420 483 38,000  Level FlightAware ADS-B
Wed 06:26:57 AM 35.7890 17.1250 282° West 421 484 38,000  Level FlightAware ADS-B
Wed 06:27:37 AM 35.8050 17.0330 282° West 420 483 38,000  Level FlightAware ADS-B
Wed 06:28:17 AM 35.8210 16.9400 282° West 418 481 38,000  Level FlightAware ADS-B
Wed 06:29:02 AM 35.8390 16.8330 282° West 417 480 38,000  Level FlightAware ADS-B
Wed 06:29:47 AM 35.8570 16.7310 282° West 417 480 38,000  Level FlightAware ADS-B
Wed 06:30:27 AM 35.8720 16.6430 282° West 418 481 38,000  Level FlightAware ADS-B
Wed 06:31:07 AM 35.8890 16.5420 282° West 419 482 38,000  Level FlightAware ADS-B
Wed 06:31:52 AM 35.9060 16.4370 281° West 419 482 38,000  Level FlightAware ADS-B
Wed 06:32:32 AM 35.9220 16.3440 282° West 420 483 38,000  Level FlightAware ADS-B
Wed 06:33:12 AM 35.9370 16.2500 281° West 422 486 38,000  Level FlightAware ADS-B
Wed 06:33:52 AM 35.9530 16.1550 282° West 424 488 38,000  Level FlightAware ADS-B
Wed 06:34:37 AM 35.9700 16.0480 281° West 424 488 38,000  Level FlightAware ADS-B
Wed 06:35:22 AM 35.9870 15.9440 281° West 426 490 38,000  Level FlightAware ADS-B
Wed 06:36:02 AM 36.0030 15.8460 281° West 425 489 38,000  Level FlightAware ADS-B
Wed 06:36:47 AM 36.0200 15.7410 281° West 423 487 38,000  Level FlightAware ADS-B
Wed 06:37:27 AM 36.0350 15.6470 281° West 424 488 38,000  Level FlightAware ADS-B
Wed 06:38:07 AM 36.0500 15.5510 281° West 426 490 38,000  Level FlightAware ADS-B
Wed 06:38:52 AM 36.0670 15.4450 281° West 429 494 38,000  Level FlightAware ADS-B
Wed 06:39:32 AM 36.0820 15.3500 281° West 426 490 38,000  Level FlightAware ADS-B
Wed 06:40:12 AM 36.0970 15.2550 281° West 423 487 38,000  Level FlightAware ADS-B
Wed 06:40:57 AM 36.1140 15.1460 281° West 424 488 38,000  Level FlightAware ADS-B
Wed 06:41:37 AM 36.1290 15.0500 281° West 424 488 38,000  Level FlightAware ADS-B
Wed 06:42:22 AM 36.1450 14.9440 281° West 424 488 38,000  Level FlightAware ADS-B
Wed 06:43:02 AM 36.1600 14.8460 281° West 426 490 38,000  Level FlightAware ADS-B
Wed 06:43:42 AM 36.1740 14.7510 280° West 427 491 38,000  Level FlightAware ADS-B
Wed 06:44:27 AM 36.1910 14.6430 281° West 427 491 38,000  Level FlightAware ADS-B
Wed 06:45:02 AM 36.2030 14.5620 280° West 428 493 38,000  Level FlightAware ADS-B
Wed 06:45:52 AM 36.2200 14.4490 281° West 430 495 38,000  Level FlightAware ADS-B
Wed 06:46:32 AM 36.2350 14.3450 280° West 431 496 38,000  Level FlightAware ADS-B
Wed 06:47:17 AM 36.2510 14.2350 280° West 431 496 38,000  Level FlightAware ADS-B
Wed 06:47:57 AM 36.2660 14.1360 281° West 431 496 38,000  Level FlightAware ADS-B
Wed 06:48:37 AM 36.2800 14.0400 280° West 430 495 38,000  Level FlightAware ADS-B
Wed 06:49:17 AM 36.2940 13.9440 280° West 430 495 38,000  Level FlightAware ADS-B
Wed 06:50:02 AM 36.3090 13.8380 280° West 430 495 38,000  Level FlightAware ADS-B
Wed 06:50:47 AM 36.3250 13.7240 280° West 430 495 38,000  Level FlightAware ADS-B
Wed 06:51:27 AM 36.3390 13.6300 281° West 433 498 38,000  Level FlightAware ADS-B
Wed 06:52:07 AM 36.3530 13.5290 280° West 435 501 38,000  Level FlightAware ADS-B
Wed 06:52:47 AM 36.3660 13.4360 280° West 436 502 38,000  Level FlightAware ADS-B
Wed 06:53:32 AM 36.3820 13.3200 280° West 437 503 38,000  Level FlightAware ADS-B
Wed 06:54:17 AM 36.3980 13.2080 280° West 437 503 38,000  Level FlightAware ADS-B
Wed 06:54:57 AM 36.4110 13.1110 279° West 443 510 38,000  Level FlightAware ADS-B
Wed 06:55:42 AM 36.4260 13.0010 280° West 443 510 38,000  Level FlightAware ADS-B
Wed 06:56:22 AM 36.4400 12.8990 280° West 442 509 38,000  Level FlightAware ADS-B
Wed 06:57:02 AM 36.4540 12.7970 280° West 440 506 38,000  Level FlightAware ADS-B
Wed 06:57:47 AM 36.4690 12.6850 279° West 440 506 38,000  Level FlightAware ADS-B
Wed 06:58:27 AM 36.4820 12.5850 279° West 441 507 38,000  Level FlightAware ADS-B
Wed 06:59:07 AM 36.4950 12.4840 279° West 442 509 38,000  Level FlightAware ADS-B
Wed 06:59:52 AM 36.5100 12.3730 280° West 441 507 38,000  Level FlightAware ADS-B
Wed 07:00:32 AM 36.5220 12.2800 279° West 435 501 38,000  Level FlightAware ADS-B
Wed 07:01:22 AM 36.5390 12.1500 279° West 433 498 38,000  Level FlightAware ADS-B
Wed 07:02:02 AM 36.5650 12.0570 289° West 455 524 38,000  Level FlightAware ADS-B
Wed 07:02:47 AM 36.6160 11.9530 301° West 465 535 38,000  Level FlightAware ADS-B
Wed 07:03:27 AM 36.6600 11.8650 302° West 465 535 38,000  Level FlightAware ADS-B
Wed 07:04:07 AM 36.7010 11.7710 299° West 454 522 38,000  Level FlightAware ADS-B
Wed 07:04:52 AM 36.7150 11.6540 279° West 449 517 38,000  Level FlightAware ADS-B
Wed 07:05:32 AM 36.7250 11.5520 277° West 455 524 38,000  Level FlightAware ADS-B
Wed 07:06:17 AM 36.7370 11.4360 277° West 461 531 38,000  Level FlightAware ADS-B
Wed 07:06:57 AM 36.7480 11.3280 277° West 467 537 38,000 -141 Level FlightAware ADS-B
Wed 07:07:42 AM 36.7590 11.2100 277° West 462 532 37,800 -424 Descending FlightAware ADS-B
Wed 07:08:22 AM 36.7700 11.1040 277° West 461 531 37,400 -675 Descending FlightAware ADS-B
Wed 07:09:02 AM 36.7800 11.0020 277° West 469 540 36,900 -847 Descending FlightAware ADS-B
Wed 07:09:47 AM 36.7920 10.8720 277° West 468 539 36,200 -635 Descending FlightAware ADS-B
Wed 07:10:27 AM 36.8020 10.7670 277° West 459 528 36,000 -141 Descending FlightAware ADS-B
Wed 07:11:12 AM 36.8140 10.6450 277° West 460 529 36,000  Level FlightAware ADS-B
Wed 07:11:52 AM 36.8230 10.5410 276° West 456 525 36,000  Level FlightAware ADS-B
Wed 07:12:32 AM 36.8330 10.4350 277° West 456 525 36,000  Level FlightAware ADS-B
Wed 07:13:17 AM 36.8430 10.3220 276° West 455 524 36,000  Level FlightAware ADS-B
Wed 07:13:57 AM 36.8510 10.2190 276° West 449 517 36,000  Level FlightAware ADS-B
Wed 07:14:37 AM 36.8500 10.1150 269° West 448 516 36,000  Level FlightAware ADS-B
Wed 07:15:22 AM 36.8480 9.9970 269° West 447 514 36,000  Level FlightAware ADS-B
Wed 07:16:07 AM 36.8460 9.8840 269° West 444 511 36,000  Level FlightAware ADS-B
Wed 07:17:42 AM 36.8420 9.6520 269° West 438 504 36,000  Level FlightAware ADS-B
Wed 07:18:12 AM 36.8410 9.5740 269° West 441 507 36,000  Level FlightAware ADS-B
Wed 07:18:52 AM 36.8390 9.4750 269° West 442 509 36,000  Level FlightAware ADS-B
Wed 07:19:27 AM 36.8370 9.3840 268° West 443 510 36,000  Level FlightAware ADS-B
Wed 07:20:17 AM 36.8370 9.2580 270° West 437 503 36,000 -189 Level FlightAware ADS-B
Wed 07:21:02 AM 36.8370 9.1410 270° West 444 511 35,700 -776 Descending FlightAware ADS-B
Wed 07:21:42 AM 36.8370 9.0430 270° West 440 506 34,900 -1,050 Descending FlightAware ADS-B
Wed 07:22:22 AM 36.8360 8.9380 269° West 446 513 34,300 -720 Descending FlightAware ADS-B
Wed 07:22:57 AM 36.8360 8.8490 270° West 438 504 34,000 -257 Descending FlightAware ADS-B
Wed 07:23:32 AM 36.8350 8.7600 269° West 434 499 34,000  Level FlightAware ADS-B
Wed 07:24:17 AM 36.8340 8.6560 269° West 434 499 34,000  Level FlightAware ADS-B
Wed 07:24:57 AM 36.8330 8.5700 269° West 434 499 34,000  Level FlightAware ADS-B
Wed 07:25:37 AM 36.8310 8.4850 268° West 434 499 34,000  Level FlightAware ADS-B
Wed 07:26:17 AM 36.8300 8.4000 269° West 434 499 34,000  Level FlightAware ADS-B
Wed 07:26:57 AM 36.8290 8.3150 269° West 434 499 34,000  Level FlightAware ADS-B
Wed 07:27:37 AM 36.8280 8.2290 269° West 434 499 34,000  Level FlightAware ADS-B
Wed 07:28:27 AM 36.8260 8.1230 269° West 434 499 34,000  Level FlightAware ADS-B
Wed 07:29:07 AM 36.8250 8.0370 269° West 434 499 34,000  Level FlightAware ADS-B
Wed 07:29:47 AM 36.8240 7.9520 269° West 434 499 34,000  Level FlightAware ADS-B
Wed 07:30:27 AM 36.8230 7.8670 269° West 434 499 34,000  Level FlightAware ADS-B
Wed 07:31:17 AM 36.8210 7.7600 269° West 434 499 34,000  Level FlightAware ADS-B
Wed 07:31:57 AM 36.8200 7.6750 269° West 434 499 34,000  Level FlightAware ADS-B
Wed 07:32:37 AM 36.8190 7.5900 269° West 434 499 34,000  Level FlightAware ADS-B
Wed 07:33:17 AM 36.8180 7.5050 269° West 434 499 34,000  Level FlightAware ADS-B
Wed 07:35:00 AM 36.8152 7.2834 269° West  Level Estimated
Wed 07:36:00 AM 36.8134 7.1543 269° West  Level Estimated
Wed 07:37:00 AM 36.8115 7.0252 269° West  Level Estimated
Wed 07:38:00 AM 36.8094 6.8961 269° West  Level Estimated
Wed 07:39:00 AM 36.8071 6.7670 269° West  Level Estimated
Wed 07:40:00 AM 36.8048 6.6379 269° West  Level Estimated
Wed 07:41:00 AM 36.8023 6.5089 269° West  Level Estimated
Wed 07:42:00 AM 36.7996 6.3798 269° West  Level Estimated
Wed 07:43:00 AM 36.7968 6.2508 268° West  Level Estimated
Wed 07:44:00 AM 36.7939 6.1218 268° West  Level Estimated
Wed 07:45:00 AM 36.7909 5.9928 268° West  Level Estimated
Wed 07:46:00 AM 36.7877 5.8637 268° West  Level Estimated
Wed 07:47:00 AM 36.7843 5.7347 268° West  Level Estimated
Wed 07:48:00 AM 36.7808 5.6058 268° West  Level Estimated
Wed 07:49:00 AM 36.7772 5.4768 268° West  Level Estimated
Wed 07:50:00 AM 36.7734 5.3478 268° West  Level Estimated
Wed 07:51:00 AM 36.7696 5.2189 268° West  Level Estimated
Wed 07:52:00 AM 36.7655 5.0899 268° West  Level Estimated
Wed 07:53:00 AM 36.7613 4.9610 268° West  Level Estimated
Wed 07:54:00 AM 36.7570 4.8321 268° West  Level Estimated
Wed 07:55:00 AM 36.7525 4.7032 268° West  Level Estimated
Wed 07:56:00 AM 36.7480 4.5743 267° West  Level Estimated
Wed 07:57:00 AM 36.7432 4.4454 267° West  Level Estimated
Wed 07:58:00 AM 36.7384 4.3166 267° West  Level Estimated
Wed 07:59:00 AM 36.7333 4.1878 267° West  Level Estimated
Wed 08:00:00 AM 36.7282 4.0590 267° West  Level Estimated
Wed 08:01:00 AM 36.7229 3.9302 267° West  Level Estimated
Wed 08:02:00 AM 36.7175 3.8014 267° West  Level Estimated
Wed 08:03:00 AM 36.7119 3.6726 267° West  Level Estimated
Wed 08:04:00 AM 36.7062 3.5439 267° West  Level Estimated
Wed 08:05:00 AM 36.7004 3.4152 267° West  Level Estimated
Wed 08:06:00 AM 36.6944 3.2865 267° West  Level Estimated
Wed 08:07:00 AM 36.6910 3.2154 267° West  Level Estimated
Wed 08:08:00 AM 36.6910 3.2154 338° Northwest  Level Estimated
Wed 08:09:00 AM 36.6910 3.2154 338° Northwest  Level Estimated
Wed 08:10:00 AM 36.6910 3.2154 338° Northwest  Level Estimated
Wed 08:11:00 AM 36.6910 3.2154 338° Northwest  Level Estimated
Wed 08:12:00 AM 36.6910 3.2154 338° Northwest  Level Estimated
Wed 08:13:00 AM 36.6910 3.2154 338° Northwest  Level Estimated
Wed 08:14:00 AM 36.6910 3.2154 338° Northwest  Level Estimated
Wed 08:15:00 AM 36.6910 3.2154 338° Northwest  Level Estimated
Wed 08:16:00 AM 36.6910 3.2154 338° Northwest  Level Estimated
Wed 08:17:00 AM 36.6910 3.2154 338° Northwest  Level Estimated
Wed 08:18:00 AM 36.6910 3.2154 338° Northwest  Level Estimated
Wed 08:19:00 AM 36.6910 3.2154 338° Northwest  Level Estimated
Wed 08:20:00 AM 36.6910 3.2154 338° Northwest  Level Estimated
Wed 08:21:00 AM 36.6910 3.2154 338° Northwest  Level Estimated
Wed 08:22:00 AM 36.6910 3.2154 338° Northwest  Level Estimated

Login

Don't have an account? Register now (free) for customized features, flight alerts, and more!